Time;durP1;ratioP1;P1;durP2;ratioP2;P2;SDS_P1;SDS_P2;PMS_P1;PMS_P2;Temp;Humidity;BMP_temperature;BMP_pressure;BME280_temperature;BME280_humidity;BME280_pressure;Samples;Min_cycle;Max_cycle;Signal;HPM_P1;HPM_P2
2022/12/21 00:01:43;;;;;;;;;;;;;;;;;;4965328;28;19922;-62
2022/12/21 00:04:09;;;;;;;;;;;;;;;;;;4969266;28;19918;-62
2022/12/21 00:06:34;;;;;;;;;;;;;;;;;;4985269;28;19941;-62
2022/12/21 00:12:15;;;;;;;;;;;;;;;;;;4985160;28;21852;-62
2022/12/21 00:14:41;;;;;;;;;;;;;;;;;;4964883;28;19972;-62
2022/12/21 00:17:06;;;;;;;;;;;;;;;;;;4966529;28;21853;-62
2022/12/21 00:19:31;;;;;;;;;;;;;;;;;;4984536;28;20005;-62
2022/12/21 00:22:12;;;;;;;;;;;;;;;;;;4986086;28;20002;-61
2022/12/21 00:27:55;;;;;;;;;;;;;;;;;;5065320;28;19934;-63
2022/12/21 00:30:26;;;;;;;;;;;;;;;;;;5066398;28;19969;-63
2022/12/21 00:32:51;;;;;;;;;;;;;;;;;;5065916;28;20080;-63
2022/12/21 00:35:19;;;;;;;;;;;;;;;;;;5066847;28;19920;-63
2022/12/21 00:37:46;;;;;;;;;;;;;;;;;;5065663;28;19959;-63
2022/12/21 00:40:11;;;;;;;;;;;;;;;;;;5065460;28;20050;-63
2022/12/21 00:42:39;;;;;;;;;;;;;;;;;;5049274;28;20771;-63
2022/12/21 00:45:07;;;;;;;;;;;;;;;;;;5066070;28;19923;-63
2022/12/21 00:47:35;;;;;;;;;;;;;;;;;;5052344;28;20289;-62
2022/12/21 00:50:00;;;;;;;;;;;;;;;;;;5048260;28;19924;-62
2022/12/21 00:52:25;;;;;;;;;;;;;;;;;;5066050;28;20006;-62
2022/12/21 00:54:59;;;;;;;;;;;;;;;;;;5047784;28;19998;-62
2022/12/21 00:57:24;;;;;;;;;;;;;;;;;;5036359;28;19924;-62
2022/12/21 00:59:49;;;;;;;;;;;;;;;;;;5065214;28;20596;-63
2022/12/21 01:02:19;;;;;;;;;;;;;;;;;;5066307;28;19927;-62
2022/12/21 01:04:45;;;;;;;;;;;;;;;;;;5065579;28;19920;-61
2022/12/21 01:07:10;;;;;;;;;;;;;;;;;;5053046;28;20692;-62
2022/12/21 01:09:35;;;;;;;;;;;;;;;;;;5048083;28;19924;-62
2022/12/21 01:12:03;;;;;;;;;;;;;;;;;;5048383;28;19942;-63
2022/12/21 01:14:30;;;;;;;;;;;;;;;;;;5066003;28;20283;-62
2022/12/21 01:16:56;;;;;;;;;;;;;;;;;;5063539;28;19923;-62
2022/12/21 01:19:22;;;;;;;;;;;;;;;;;;5065411;28;19927;-62
2022/12/21 01:21:47;;;;;;;;;;;;;;;;;;5065638;28;19924;-62
2022/12/21 01:24:12;;;;;;;;;;;;;;;;;;5066388;28;19927;-62
2022/12/21 01:26:38;;;;;;;;;;;;;;;;;;5009121;28;20897;-62
2022/12/21 01:29:03;;;;;;;;;;;;;;;;;;4983817;28;20971;-62
2022/12/21 01:31:29;;;;;;;;;;;;;;;;;;4976101;28;20402;-62
2022/12/21 01:33:54;;;;;;;;;;;;;;;;;;4982914;28;19925;-62
2022/12/21 01:36:19;;;;;;;;;;;;;;;;;;4983627;28;19921;-62
2022/12/21 01:38:48;;;;;;;;;;;;;;;;;;4983017;28;20732;-62
2022/12/21 01:41:16;;;;;;;;;;;;;;;;;;4983476;28;19922;-62
2022/12/21 01:43:46;;;;;;;;;;;;;;;;;;4975827;28;19964;-63
2022/12/21 01:46:12;;;;;;;;;;;;;;;;;;4983561;28;19921;-62
2022/12/21 01:48:38;;;;;;;;;;;;;;;;;;4983094;28;19921;-62
2022/12/21 01:51:05;;;;;;;;;;;;;;;;;;4982271;28;19928;-62
2022/12/21 01:53:31;;;;;;;;;;;;;;;;;;4975332;28;19957;-62
2022/12/21 01:55:58;;;;;;;;;;;;;;;;;;4975954;28;20008;-63
2022/12/21 01:58:26;;;;;;;;;;;;;;;;;;4980931;28;20388;-62
2022/12/21 02:00:54;;;;;;;;;;;;;;;;;;4973651;28;19924;-61
2022/12/21 02:03:24;;;;;;;;;;;;;;;;;;4979411;28;20007;-65
2022/12/21 02:05:49;;;;;;;;;;;;;;;;;;4964481;28;19928;-64
2022/12/21 02:08:17;;;;;;;;;;;;;;;;;;4974546;28;19922;-64
2022/12/21 02:10:45;;;;;;;;;;;;;;;;;;4981596;28;19925;-63
2022/12/21 02:13:10;;;;;;;;;;;;;;;;;;4973657;28;20008;-63
2022/12/21 02:15:38;;;;;;;;;;;;;;;;;;4971512;28;19921;-63
2022/12/21 02:18:03;;;;;;;;;;;;;;;;;;4973274;28;19940;-63
2022/12/21 02:20:31;;;;;;;;;;;;;;;;;;4958497;28;20595;-63
2022/12/21 02:22:56;;;;;;;;;;;;;;;;;;4981086;28;19927;-63
2022/12/21 02:28:53;;;;;;;;;;;;;;;;;;4980129;28;19955;-63
2022/12/21 02:31:19;;;;;;;;;;;;;;;;;;4983968;28;19922;-61
2022/12/21 02:33:45;;;;;;;;;;;;;;;;;;4986414;28;19936;-63
2022/12/21 02:36:13;;;;;;;;;;;;;;;;;;4983856;28;20034;-62
2022/12/21 02:38:38;;;;;;;;;;;;;;;;;;4983997;28;19932;-62
2022/12/21 02:41:06;;;;;;;;;;;;;;;;;;4985369;28;20395;-62
2022/12/21 02:46:53;;;;;;;;;;;;;;;;;;4986119;28;21915;-64
2022/12/21 02:49:21;;;;;;;;;;;;;;;;;;4985351;28;19921;-64
2022/12/21 02:51:46;;;;;;;;;;;;;;;;;;4986693;28;19971;-64
2022/12/21 02:54:14;;;;;;;;;;;;;;;;;;4985908;28;19929;-62
2022/12/21 02:56:42;;;;;;;;;;;;;;;;;;4970797;28;19976;-62
2022/12/21 02:59:10;;;;;;;;;;;;;;;;;;4949239;28;19956;-62
2022/12/21 03:01:35;;;;;;;;;;;;;;;;;;4986705;28;19921;-62
2022/12/21 03:04:00;;;;;;;;;;;;;;;;;;5036324;28;19921;-63
2022/12/21 03:09:43;;;;;;;;;;;;;;;;;;4985503;28;19955;-62
2022/12/21 03:12:08;;;;;;;;;;;;;;;;;;4965877;28;20629;-62
2022/12/21 03:14:33;;;;;;;;;;;;;;;;;;4968968;28;19933;-61
2022/12/21 03:17:02;;;;;;;;;;;;;;;;;;4985449;28;19918;-62
2022/12/21 03:19:27;;;;;;;;;;;;;;;;;;4951168;28;20008;-62
2022/12/21 03:21:55;;;;;;;;;;;;;;;;;;4966349;28;19921;-62
2022/12/21 03:24:20;;;;;;;;;;;;;;;;;;4969066;28;19921;-62
2022/12/21 03:30:02;;;;;;;;;;;;;;;;;;4984278;28;21040;-61
2022/12/21 03:32:27;;;;;;;;;;;;;;;;;;4966251;28;20012;-63
2022/12/21 03:34:52;;;;;;;;;;;;;;;;;;4965157;28;20431;-64
2022/12/21 03:37:20;;;;;;;;;;;;;;;;;;4970767;28;19922;-62
2022/12/21 03:39:45;;;;;;;;;;;;;;;;;;4985142;28;20660;-64
2022/12/21 03:42:10;;;;;;;;;;;;;;;;;;4967647;28;21146;-62
2022/12/21 03:44:36;;;;;;;;;;;;;;;;;;4977244;28;19922;-63
2022/12/21 03:47:01;;;;;;;;;;;;;;;;;;4968974;28;19921;-63
2022/12/21 03:49:26;;;;;;;;;;;;;;;;;;4951081;28;19926;-63
2022/12/21 03:51:54;;;;;;;;;;;;;;;;;;5033947;28;19922;-63
2022/12/21 03:54:19;;;;;;;;;;;;;;;;;;4984879;28;20010;-63
2022/12/21 03:56:44;;;;;;;;;;;;;;;;;;4964455;28;19925;-63
2022/12/21 03:59:09;;;;;;;;;;;;;;;;;;4968213;28;19924;-63
2022/12/21 04:01:37;;;;;;;;;;;;;;;;;;4984551;28;21820;-63
2022/12/21 04:04:05;;;;;;;;;;;;;;;;;;4985163;28;19925;-63
2022/12/21 04:06:33;;;;;;;;;;;;;;;;;;4984526;28;20361;-63
2022/12/21 04:08:58;;;;;;;;;;;;;;;;;;4969185;28;19921;-64
2022/12/21 04:14:10;;;;;;;;;;;;;;;;;;4984207;28;19926;-62
2022/12/21 04:16:36;;;;;;;;;;;;;;;;;;4985198;28;21294;-62
2022/12/21 04:21:48;;;;;;;;;;;;;;;;;;4986627;28;22011;-62
2022/12/21 04:29:47;;;;;;;;;;;;;;;;;;4967070;28;20371;-63
2022/12/21 04:32:13;;;;;;;;;;;;;;;;;;4967911;28;19925;-63
2022/12/21 04:34:40;;;;;;;;;;;;;;;;;;4949980;28;19933;-61
2022/12/21 04:40:23;;;;;;;;;;;;;;;;;;4983392;28;19929;-61
2022/12/21 04:42:49;;;;;;;;;;;;;;;;;;4984295;28;20095;-62
2022/12/21 04:45:14;;;;;;;;;;;;;;;;;;4967529;28;20444;-62
2022/12/21 04:47:39;;;;;;;;;;;;;;;;;;4971611;28;19922;-62
2022/12/21 04:50:07;;;;;;;;;;;;;;;;;;4964548;28;21873;-62
2022/12/21 04:52:35;;;;;;;;;;;;;;;;;;4969117;28;19937;-63
2022/12/21 04:55:03;;;;;;;;;;;;;;;;;;4950232;28;20399;-62
2022/12/21 04:57:28;;;;;;;;;;;;;;;;;;4984926;28;19926;-62
2022/12/21 04:59:56;;;;;;;;;;;;;;;;;;4965905;28;20416;-62
2022/12/21 05:02:24;;;;;;;;;;;;;;;;;;4982674;28;19970;-62
2022/12/21 05:04:49;;;;;;;;;;;;;;;;;;4964505;28;19926;-63
2022/12/21 05:07:15;;;;;;;;;;;;;;;;;;4983740;28;19921;-62
2022/12/21 05:09:40;;;;;;;;;;;;;;;;;;5052288;28;19929;-62
2022/12/21 05:12:08;;;;;;;;;;;;;;;;;;4967646;28;19995;-62
2022/12/21 05:14:36;;;;;;;;;;;;;;;;;;4971524;28;19926;-62
2022/12/21 05:17:01;;;;;;;;;;;;;;;;;;4983895;28;21859;-62
2022/12/21 05:19:31;;;;;;;;;;;;;;;;;;4982123;28;19938;-62
2022/12/21 05:21:59;;;;;;;;;;;;;;;;;;4984926;28;19918;-62
2022/12/21 05:24:27;;;;;;;;;;;;;;;;;;4962761;28;19933;-62
2022/12/21 05:26:52;;;;;;;;;;;;;;;;;;4984642;28;20532;-62
2022/12/21 05:29:18;;;;;;;;;;;;;;;;;;4976287;28;19920;-62
2022/12/21 05:31:46;;;;;;;;;;;;;;;;;;5064947;28;19920;-62
2022/12/21 05:34:11;;;;;;;;;;;;;;;;;;5065147;28;20620;-62
2022/12/21 05:36:39;;;;;;;;;;;;;;;;;;4980128;28;19920;-62
2022/12/21 05:39:05;;;;;;;;;;;;;;;;;;5064936;28;19916;-62
2022/12/21 05:41:32;;;;;;;;;;;;;;;;;;5063521;28;19920;-62
2022/12/21 05:44:01;;;;;;;;;;;;;;;;;;5065139;28;19972;-62
2022/12/21 05:46:26;;;;;;;;;;;;;;;;;;4991761;28;19993;-61
2022/12/21 05:48:52;;;;;;;;;;;;;;;;;;4976809;28;19966;-62
2022/12/21 05:51:17;;;;;;;;;;;;;;;;;;4964007;28;19924;-62
2022/12/21 05:53:45;;;;;;;;;;;;;;;;;;5046200;28;19964;-62
2022/12/21 05:56:10;;;;;;;;;;;;;;;;;;4979265;28;20948;-62
2022/12/21 05:58:38;;;;;;;;;;;;;;;;;;5065806;28;19924;-63
2022/12/21 06:01:04;;;;;;;;;;;;;;;;;;5062062;28;20587;-63
2022/12/21 06:03:31;;;;;;;;;;;;;;;;;;4963003;28;20003;-62
2022/12/21 06:05:57;;;;;;;;;;;;;;;;;;4994489;28;20607;-63
2022/12/21 06:11:15;;;;;;;;;;;;;;;;;;5065164;28;19943;-63
2022/12/21 06:13:43;;;;;;;;;;;;;;;;;;4976728;28;20410;-63
2022/12/21 06:16:09;;;;;;;;;;;;;;;;;;4993801;28;19920;-63
2022/12/21 06:18:39;;;;;;;;;;;;;;;;;;5064339;28;20553;-63
2022/12/21 06:21:07;;;;;;;;;;;;;;;;;;5061844;28;19927;-61
2022/12/21 06:23:32;;;;;;;;;;;;;;;;;;4979406;28;19920;-61
2022/12/21 06:25:57;;;;;;;;;;;;;;;;;;4963228;28;19970;-61
2022/12/21 06:28:23;;;;;;;;;;;;;;;;;;5064719;28;19969;-61
2022/12/21 06:30:50;;;;;;;;;;;;;;;;;;5062158;28;20001;-61
2022/12/21 06:33:15;;;;;;;;;;;;;;;;;;4979469;28;20387;-63
2022/12/21 06:35:43;;;;;;;;;;;;;;;;;;5062741;28;19931;-61
2022/12/21 06:38:08;;;;;;;;;;;;;;;;;;4975866;28;19924;-62
2022/12/21 06:40:34;;;;;;;;;;;;;;;;;;4978794;28;20691;-62
2022/12/21 06:43:03;;;;;;;;;;;;;;;;;;5064970;28;19923;-62
2022/12/21 06:45:31;;;;;;;;;;;;;;;;;;5064015;28;19959;-62
2022/12/21 06:50:47;;;;;;;;;;;;;;;;;;5065496;28;19927;-61
2022/12/21 06:53:12;;;;;;;;;;;;;;;;;;4976943;28;19916;-62
2022/12/21 06:55:38;;;;;;;;;;;;;;;;;;4971860;28;19924;-61
2022/12/21 06:58:03;;;;;;;;;;;;;;;;;;5065197;28;19916;-62
2022/12/21 07:00:29;;;;;;;;;;;;;;;;;;5065617;28;19920;-62
2022/12/21 07:02:57;;;;;;;;;;;;;;;;;;4978292;28;19920;-62
2022/12/21 07:05:23;;;;;;;;;;;;;;;;;;5066053;28;19916;-62
2022/12/21 07:07:48;;;;;;;;;;;;;;;;;;5047490;28;20815;-62
2022/12/21 07:10:13;;;;;;;;;;;;;;;;;;5064146;28;21051;-62
2022/12/21 07:15:56;;;;;;;;;;;;;;;;;;5064047;28;19931;-61
2022/12/21 07:18:23;;;;;;;;;;;;;;;;;;4996832;28;19936;-62
2022/12/21 07:20:56;;;;;;;;;;;;;;;;;;5067454;28;19939;-62
2022/12/21 07:23:25;;;;;;;;;;;;;;;;;;5067654;28;19920;-62
2022/12/21 07:25:50;;;;;;;;;;;;;;;;;;4965185;28;19927;-62
2022/12/21 07:31:46;;;;;;;;;;;;;;;;;;4985337;28;19974;-62
2022/12/21 07:34:11;;;;;;;;;;;;;;;;;;4986679;28;19930;-62
2022/12/21 07:36:36;;;;;;;;;;;;;;;;;;4979011;28;19922;-62
2022/12/21 07:39:04;;;;;;;;;;;;;;;;;;4986346;28;19979;-63
2022/12/21 07:41:30;;;;;;;;;;;;;;;;;;4986268;28;19922;-62
2022/12/21 07:43:58;;;;;;;;;;;;;;;;;;4966718;28;20354;-62
2022/12/21 07:46:26;;;;;;;;;;;;;;;;;;4965657;28;19917;-62
2022/12/21 07:48:52;;;;;;;;;;;;;;;;;;4985877;28;21890;-62
2022/12/21 07:51:19;;;;;;;;;;;;;;;;;;4984525;28;20035;-62
2022/12/21 07:53:45;;;;;;;;;;;;;;;;;;4985286;28;19979;-62
2022/12/21 07:56:11;;;;;;;;;;;;;;;;;;4951799;28;20024;-62
2022/12/21 07:58:36;;;;;;;;;;;;;;;;;;4985766;28;20631;-62
2022/12/21 08:01:04;;;;;;;;;;;;;;;;;;4986394;28;19933;-62
2022/12/21 08:03:31;;;;;;;;;;;;;;;;;;4985825;28;19941;-62
2022/12/21 08:05:56;;;;;;;;;;;;;;;;;;4985702;28;20280;-62
2022/12/21 08:08:22;;;;;;;;;;;;;;;;;;4978010;28;19947;-62
2022/12/21 08:10:49;;;;;;;;;;;;;;;;;;4980350;28;19922;-62
2022/12/21 08:13:18;;;;;;;;;;;;;;;;;;4986621;28;20012;-63
2022/12/21 08:15:45;;;;;;;;;;;;;;;;;;4985497;28;19921;-62
2022/12/21 08:18:11;;;;;;;;;;;;;;;;;;4980535;28;19933;-62
2022/12/21 08:20:36;;;;;;;;;;;;;;;;;;4974330;28;19926;-63
2022/12/21 08:23:01;;;;;;;;;;;;;;;;;;4985851;28;19967;-63
2022/12/21 08:25:27;;;;;;;;;;;;;;;;;;4984672;28;20001;-63
2022/12/21 08:27:55;;;;;;;;;;;;;;;;;;4986032;28;19956;-62
2022/12/21 08:30:20;;;;;;;;;;;;;;;;;;4984050;28;19926;-63
2022/12/21 08:32:45;;;;;;;;;;;;;;;;;;4977164;28;19921;-63
2022/12/21 08:35:13;;;;;;;;;;;;;;;;;;4985411;28;19926;-64
2022/12/21 08:37:41;;;;;;;;;;;;;;;;;;4984346;28;20300;-64
2022/12/21 08:40:06;;;;;;;;;;;;;;;;;;4981967;28;19917;-62
2022/12/21 08:42:32;;;;;;;;;;;;;;;;;;4986033;28;20014;-64
2022/12/21 08:44:57;;;;;;;;;;;;;;;;;;4985680;28;19921;-63
2022/12/21 08:50:41;;;;;;;;;;;;;;;;;;4984788;28;19928;-63
2022/12/21 08:53:09;;;;;;;;;;;;;;;;;;4994626;28;19921;-62
2022/12/21 08:55:35;;;;;;;;;;;;;;;;;;4984966;28;19929;-63
2022/12/21 08:58:02;;;;;;;;;;;;;;;;;;4985285;28;19998;-62
2022/12/21 09:00:30;;;;;;;;;;;;;;;;;;4981035;28;19925;-64
2022/12/21 09:02:58;;;;;;;;;;;;;;;;;;4985916;28;19971;-66
2022/12/21 09:05:28;;;;;;;;;;;;;;;;;;4977036;28;19918;-61
2022/12/21 09:07:54;;;;;;;;;;;;;;;;;;4977700;28;19918;-61
2022/12/21 09:10:19;;;;;;;;;;;;;;;;;;4983387;28;19917;-61
2022/12/21 09:12:45;;;;;;;;;;;;;;;;;;4991443;28;19957;-61
2022/12/21 09:15:13;;;;;;;;;;;;;;;;;;4981570;28;19922;-62
2022/12/21 09:17:38;;;;;;;;;;;;;;;;;;4984164;28;19918;-62
2022/12/21 09:20:03;;;;;;;;;;;;;;;;;;4982267;28;19936;-62
2022/12/21 09:22:29;;;;;;;;;;;;;;;;;;4981105;28;19924;-62
2022/12/21 09:24:57;;;;;;;;;;;;;;;;;;4983890;28;19929;-62
2022/12/21 09:27:22;;;;;;;;;;;;;;;;;;4985775;28;19996;-62
2022/12/21 09:29:47;;;;;;;;;;;;;;;;;;5003933;28;20337;-62
2022/12/21 09:32:12;;;;;;;;;;;;;;;;;;5050714;28;20595;-62
2022/12/21 09:34:38;;;;;;;;;;;;;;;;;;5050348;28;19928;-66
2022/12/21 09:37:05;;;;;;;;;;;;;;;;;;5050133;28;19916;-62
2022/12/21 09:39:34;;;;;;;;;;;;;;;;;;5049819;28;19969;-62
2022/12/21 09:41:59;;;;;;;;;;;;;;;;;;5050219;28;19926;-62
2022/12/21 09:44:28;;;;;;;;;;;;;;;;;;5068269;28;19920;-62
2022/12/21 09:46:54;;;;;;;;;;;;;;;;;;5068401;28;19916;-62
2022/12/21 09:49:22;;;;;;;;;;;;;;;;;;5068598;28;19927;-62
2022/12/21 09:51:47;;;;;;;;;;;;;;;;;;5051761;28;19920;-63
2022/12/21 09:54:12;;;;;;;;;;;;;;;;;;5067599;28;19969;-61
2022/12/21 09:56:38;;;;;;;;;;;;;;;;;;5068394;28;19920;-62
2022/12/21 09:59:07;;;;;;;;;;;;;;;;;;5047086;28;19916;-62
2022/12/21 10:01:37;;;;;;;;;;;;;;;;;;5049911;28;19916;-62
2022/12/21 10:04:03;;;;;;;;;;;;;;;;;;5049071;28;19962;-63
2022/12/21 10:06:31;;;;;;;;;;;;;;;;;;5046270;28;19913;-62
2022/12/21 10:09:06;;;;;;;;;;;;;;;;;;5068727;28;19971;-62
2022/12/21 10:11:33;;;;;;;;;;;;;;;;;;5068671;28;19920;-62
2022/12/21 10:13:58;;;;;;;;;;;;;;;;;;5049303;28;20310;-62
2022/12/21 10:19:42;;;;;;;;;;;;;;;;;;5068017;28;19922;-61
2022/12/21 10:22:08;;;;;;;;;;;;;;;;;;5050818;28;19931;-61
2022/12/21 10:24:35;;;;;;;;;;;;;;;;;;5049909;28;19943;-61
2022/12/21 10:27:03;;;;;;;;;;;;;;;;;;5067429;28;19994;-63
2022/12/21 10:29:29;;;;;;;;;;;;;;;;;;5038653;28;19925;-62
2022/12/21 10:31:54;;;;;;;;;;;;;;;;;;5050893;28;19929;-62
2022/12/21 10:34:19;;;;;;;;;;;;;;;;;;4965718;28;19976;-62
2022/12/21 10:36:45;;;;;;;;;;;;;;;;;;4967368;28;21070;-61
2022/12/21 10:39:10;;;;;;;;;;;;;;;;;;4966433;28;19925;-61
2022/12/21 10:41:36;;;;;;;;;;;;;;;;;;4982945;28;19921;-62
2022/12/21 10:44:06;;;;;;;;;;;;;;;;;;5032153;28;20510;-62
2022/12/21 10:46:37;;;;;;;;;;;;;;;;;;4964289;28;19955;-61
2022/12/21 10:49:05;;;;;;;;;;;;;;;;;;4963224;28;19932;-62
2022/12/21 10:51:32;;;;;;;;;;;;;;;;;;4950088;28;19953;-62
2022/12/21 10:53:57;;;;;;;;;;;;;;;;;;5035588;28;19956;-61
2022/12/21 10:56:22;;;;;;;;;;;;;;;;;;4984839;28;20036;-61
2022/12/21 10:58:51;;;;;;;;;;;;;;;;;;4968986;28;19927;-62
2022/12/21 11:01:18;;;;;;;;;;;;;;;;;;5050763;28;19921;-63
2022/12/21 11:03:47;;;;;;;;;;;;;;;;;;4968055;28;20759;-62
2022/12/21 11:06:13;;;;;;;;;;;;;;;;;;4985710;28;19924;-62
2022/12/21 11:08:41;;;;;;;;;;;;;;;;;;4986168;28;19918;-62
2022/12/21 11:14:23;;;;;;;;;;;;;;;;;;4985470;28;19932;-62
2022/12/21 11:16:52;;;;;;;;;;;;;;;;;;4967096;28;20423;-62
2022/12/21 11:19:17;;;;;;;;;;;;;;;;;;5038122;28;20016;-62
2022/12/21 11:21:42;;;;;;;;;;;;;;;;;;4970232;28;19922;-62
2022/12/21 11:24:08;;;;;;;;;;;;;;;;;;4986770;28;19922;-62
2022/12/21 11:26:38;;;;;;;;;;;;;;;;;;4986667;28;19943;-62
2022/12/21 11:29:06;;;;;;;;;;;;;;;;;;4985379;28;19960;-62
2022/12/21 11:31:31;;;;;;;;;;;;;;;;;;4985748;28;20015;-62
2022/12/21 11:33:57;;;;;;;;;;;;;;;;;;4984353;28;20574;-62
2022/12/21 11:36:22;;;;;;;;;;;;;;;;;;4969339;28;19926;-62
2022/12/21 11:38:48;;;;;;;;;;;;;;;;;;4985334;28;19925;-61
2022/12/21 11:41:13;;;;;;;;;;;;;;;;;;4985844;28;20392;-61
2022/12/21 11:43:43;;;;;;;;;;;;;;;;;;4972662;28;19940;-61
2022/12/21 11:46:11;;;;;;;;;;;;;;;;;;4965741;28;21898;-63
2022/12/21 11:48:36;;;;;;;;;;;;;;;;;;4966541;28;19969;-63
2022/12/21 11:51:02;;;;;;;;;;;;;;;;;;4985282;28;20016;-63
2022/12/21 11:53:29;;;;;;;;;;;;;;;;;;5034367;28;19924;-63
2022/12/21 11:55:55;;;;;;;;;;;;;;;;;;4968463;28;20835;-64
2022/12/21 11:58:25;;;;;;;;;;;;;;;;;;4953534;28;19921;-63
2022/12/21 12:00:50;;;;;;;;;;;;;;;;;;4992593;28;19933;-63
2022/12/21 12:03:18;;;;;;;;;;;;;;;;;;4964283;28;19924;-63
2022/12/21 12:05:43;;;;;;;;;;;;;;;;;;4964761;28;19917;-63
2022/12/21 12:08:09;;;;;;;;;;;;;;;;;;4965539;28;19922;-64
2022/12/21 12:10:34;;;;;;;;;;;;;;;;;;4966794;28;19918;-61
2022/12/21 12:13:01;;;;;;;;;;;;;;;;;;5035447;28;19922;-63
2022/12/21 12:15:27;;;;;;;;;;;;;;;;;;4985515;28;19931;-63
2022/12/21 12:17:54;;;;;;;;;;;;;;;;;;4984877;28;20056;-63
2022/12/21 12:20:23;;;;;;;;;;;;;;;;;;4984822;28;19928;-63
2022/12/21 12:22:48;;;;;;;;;;;;;;;;;;4985703;28;20382;-63
2022/12/21 12:25:17;;;;;;;;;;;;;;;;;;4984750;28;19929;-64
2022/12/21 12:28:15;;;;;;;;;;;;;;;;;;5154954;22;19946;-64
2022/12/21 12:30:40;;;;;;;;;;;;;;;;;;4920879;28;19922;-65
2022/12/21 12:33:05;;;;;;;;;;;;;;;;;;4921434;28;20253;-64
2022/12/21 12:35:31;;;;;;;;;;;;;;;;;;4922913;28;19926;-64
2022/12/21 12:37:56;;;;;;;;;;;;;;;;;;4926993;28;19998;-64
2022/12/21 12:40:21;;;;;;;;;;;;;;;;;;4924343;28;19923;-65
2022/12/21 12:42:47;;;;;;;;;;;;;;;;;;4910505;28;19918;-64
2022/12/21 12:45:12;;;;;;;;;;;;;;;;;;4924282;28;19922;-64
2022/12/21 12:47:40;;;;;;;;;;;;;;;;;;4909380;28;20520;-64
2022/12/21 12:50:06;;;;;;;;;;;;;;;;;;4926163;28;20289;-64
2022/12/21 12:52:31;;;;;;;;;;;;;;;;;;4908978;28;20481;-64
2022/12/21 12:55:01;;;;;;;;;;;;;;;;;;4923631;28;20435;-65
2022/12/21 12:57:27;;;;;;;;;;;;;;;;;;4923452;28;20017;-65
2022/12/21 13:00:03;;;;;;;;;;;;;;;;;;4923996;28;19926;-62
2022/12/21 13:02:31;;;;;;;;;;;;;;;;;;4918783;28;19918;-64
2022/12/21 13:04:58;;;;;;;;;;;;;;;;;;4923906;28;19929;-64
2022/12/21 13:07:24;;;;;;;;;;;;;;;;;;4925339;28;19918;-64
2022/12/21 13:09:50;;;;;;;;;;;;;;;;;;4903620;28;19939;-65
2022/12/21 13:12:15;;;;;;;;;;;;;;;;;;4923067;28;20425;-65
2022/12/21 13:14:41;;;;;;;;;;;;;;;;;;4922963;28;19934;-64
2022/12/21 13:20:23;;;;;;;;;;;;;;;;;;4925138;28;21351;-66
2022/12/21 13:22:51;;;;;;;;;;;;;;;;;;4922389;28;19923;-66
2022/12/21 13:25:17;;;;;;;;;;;;;;;;;;4923526;28;19929;-65
2022/12/21 13:27:55;;;;;;;;;;;;;;;;;;4923762;28;20409;-66
2022/12/21 13:33:37;;;;;;;;;;;;;;;;;;4925438;28;19942;-67
2022/12/21 13:39:32;;;;;;;;;;;;;;;;;;4922128;28;19930;-64
2022/12/21 13:42:07;;;;;;;;;;;;;;;;;;4925212;28;19934;-64
2022/12/21 13:44:50;;;;;;;;;;;;;;;;;;4926265;28;19925;-65
2022/12/21 13:47:16;;;;;;;;;;;;;;;;;;4927445;28;19987;-66
2022/12/21 13:49:42;;;;;;;;;;;;;;;;;;4907657;28;20018;-65
2022/12/21 13:52:07;;;;;;;;;;;;;;;;;;4921283;28;19919;-66
2022/12/21 13:54:37;;;;;;;;;;;;;;;;;;4900495;28;20377;-66
2022/12/21 14:00:25;;;;;;;;;;;;;;;;;;4923351;28;19984;-64
2022/12/21 14:02:55;;;;;;;;;;;;;;;;;;4924436;28;19918;-65
2022/12/21 14:05:21;;;;;;;;;;;;;;;;;;4922274;28;19927;-71
2022/12/21 14:11:05;;;;;;;;;;;;;;;;;;4923848;28;19930;-68
2022/12/21 14:13:30;;;;;;;;;;;;;;;;;;4924106;28;19969;-68
2022/12/21 14:15:58;;;;;;;;;;;;;;;;;;4904780;28;19983;-67
2022/12/21 14:18:24;;;;;;;;;;;;;;;;;;4914334;28;19929;-69
2022/12/21 14:20:50;;;;;;;;;;;;;;;;;;4925499;28;19926;-68
2022/12/21 14:23:15;;;;;;;;;;;;;;;;;;4922945;28;20068;-69
2022/12/21 14:25:41;;;;;;;;;;;;;;;;;;4922834;28;20479;-67
2022/12/21 14:28:06;;;;;;;;;;;;;;;;;;4920209;28;20474;-68
2022/12/21 14:30:34;;;;;;;;;;;;;;;;;;4925674;28;19934;-69
2022/12/21 14:33:05;;;;;;;;;;;;;;;;;;4928055;28;19922;-66
2022/12/21 14:35:33;;;;;;;;;;;;;;;;;;4924602;28;19926;-67
2022/12/21 14:37:59;;;;;;;;;;;;;;;;;;4928433;28;19923;-68
2022/12/21 14:40:26;;;;;;;;;;;;;;;;;;4919119;28;19934;-67
2022/12/21 14:42:54;;;;;;;;;;;;;;;;;;4913296;28;19980;-67
2022/12/21 14:45:20;;;;;;;;;;;;;;;;;;4993824;28;20057;-69
2022/12/21 14:47:45;;;;;;;;;;;;;;;;;;4992344;28;20435;-67
2022/12/21 14:50:10;;;;;;;;;;;;;;;;;;4928335;28;19922;-68
2022/12/21 14:52:38;;;;;;;;;;;;;;;;;;4925541;28;19972;-69
2022/12/21 14:55:03;;;;;;;;;;;;;;;;;;4921526;28;20142;-70
2022/12/21 14:57:31;;;;;;;;;;;;;;;;;;4994609;28;19922;-70
2022/12/21 14:59:56;;;;;;;;;;;;;;;;;;4912504;28;20645;-71
2022/12/21 15:02:26;;;;;;;;;;;;;;;;;;4996462;28;20168;-67
2022/12/21 15:04:51;;;;;;;;;;;;;;;;;;4979533;28;19957;-68
2022/12/21 15:07:17;;;;;;;;;;;;;;;;;;4926918;28;20361;-69
2022/12/21 15:09:43;;;;;;;;;;;;;;;;;;4929078;28;19930;-68
2022/12/21 15:12:11;;;;;;;;;;;;;;;;;;4926418;28;20304;-67
2022/12/21 15:14:39;;;;;;;;;;;;;;;;;;4924341;28;19928;-68
2022/12/21 15:17:04;;;;;;;;;;;;;;;;;;4977721;28;19918;-68
2022/12/21 15:19:32;;;;;;;;;;;;;;;;;;4922392;28;21549;-67
2022/12/21 15:22:00;;;;;;;;;;;;;;;;;;4927637;28;19926;-68
2022/12/21 15:24:28;;;;;;;;;;;;;;;;;;4928020;28;19923;-68
2022/12/21 15:26:53;;;;;;;;;;;;;;;;;;4926845;28;19923;-69
2022/12/21 15:29:22;;;;;;;;;;;;;;;;;;4979090;28;19934;-72
2022/12/21 15:31:59;;;;;;;;;;;;;;;;;;4977888;28;19944;-69
2022/12/21 15:34:25;;;;;;;;;;;;;;;;;;4912520;28;19930;-68
2022/12/21 15:36:53;;;;;;;;;;;;;;;;;;4915123;28;19920;-71
2022/12/21 15:39:18;;;;;;;;;;;;;;;;;;4976650;28;20025;-69
2022/12/21 15:41:44;;;;;;;;;;;;;;;;;;4914506;28;19938;-70
2022/12/21 15:44:09;;;;;;;;;;;;;;;;;;4926513;28;20343;-70
2022/12/21 15:46:37;;;;;;;;;;;;;;;;;;4911742;28;20312;-70
2022/12/21 15:49:04;;;;;;;;;;;;;;;;;;4956205;28;19999;-71
2022/12/21 15:51:48;;;;;;;;;;;;;;;;;;4918949;28;19923;-68
2022/12/21 15:54:14;;;;;;;;;;;;;;;;;;4925074;28;19944;-68
2022/12/21 15:56:40;;;;;;;;;;;;;;;;;;4912618;28;20449;-68
2022/12/21 15:59:07;;;;;;;;;;;;;;;;;;4921431;28;19970;-68
2022/12/21 16:01:32;;;;;;;;;;;;;;;;;;4925805;28;20022;-68
2022/12/21 16:04:00;;;;;;;;;;;;;;;;;;4910736;28;20337;-69
2022/12/21 16:09:44;;;;;;;;;;;;;;;;;;4927097;28;19924;-69
2022/12/21 16:12:10;;;;;;;;;;;;;;;;;;4912525;28;19922;-68
2022/12/21 16:14:37;;;;;;;;;;;;;;;;;;4918705;28;20506;-67
2022/12/21 16:17:05;;;;;;;;;;;;;;;;;;4923973;28;19925;-68
2022/12/21 16:19:30;;;;;;;;;;;;;;;;;;4926906;28;20439;-69
2022/12/21 16:22:00;;;;;;;;;;;;;;;;;;4929244;28;19919;-69
2022/12/21 16:24:25;;;;;;;;;;;;;;;;;;4926845;28;19918;-69
2022/12/21 16:26:51;;;;;;;;;;;;;;;;;;4904099;28;19929;-69
2022/12/21 16:29:16;;;;;;;;;;;;;;;;;;4924753;28;19934;-69
2022/12/21 16:31:41;;;;;;;;;;;;;;;;;;4922938;28;20007;-68
2022/12/21 16:34:06;;;;;;;;;;;;;;;;;;4926171;28;19933;-69
2022/12/21 16:36:34;;;;;;;;;;;;;;;;;;4993299;28;19922;-69
2022/12/21 16:39:02;;;;;;;;;;;;;;;;;;4927683;28;19926;-69
2022/12/21 16:41:30;;;;;;;;;;;;;;;;;;4927763;28;20017;-67
2022/12/21 16:43:55;;;;;;;;;;;;;;;;;;4927690;28;19923;-68
2022/12/21 16:46:20;;;;;;;;;;;;;;;;;;4925776;28;21948;-68
2022/12/21 16:48:48;;;;;;;;;;;;;;;;;;4993674;28;20560;-68
2022/12/21 16:51:16;;;;;;;;;;;;;;;;;;4923208;28;19976;-68
2022/12/21 16:53:44;;;;;;;;;;;;;;;;;;4976050;28;19926;-68
2022/12/21 16:56:10;;;;;;;;;;;;;;;;;;4910189;28;19926;-68
2022/12/21 16:58:35;;;;;;;;;;;;;;;;;;4929865;28;19926;-68
2022/12/21 17:01:01;;;;;;;;;;;;;;;;;;4928931;28;19933;-68
2022/12/21 17:03:29;;;;;;;;;;;;;;;;;;4924007;28;19923;-68
2022/12/21 17:05:55;;;;;;;;;;;;;;;;;;4927166;28;19933;-68
2022/12/21 17:08:23;;;;;;;;;;;;;;;;;;4923677;28;20048;-68
2022/12/21 17:10:49;;;;;;;;;;;;;;;;;;4925999;28;20417;-71
2022/12/21 17:13:17;;;;;;;;;;;;;;;;;;4974894;28;19961;-69
2022/12/21 17:15:46;;;;;;;;;;;;;;;;;;4959198;28;19984;-72
2022/12/21 17:18:11;;;;;;;;;;;;;;;;;;4968647;28;19923;-69
2022/12/21 17:20:36;;;;;;;;;;;;;;;;;;4925058;28;19956;-69
2022/12/21 17:23:04;;;;;;;;;;;;;;;;;;4925339;28;20640;-69
2022/12/21 17:25:30;;;;;;;;;;;;;;;;;;4923509;28;19927;-69
2022/12/21 17:27:58;;;;;;;;;;;;;;;;;;4917421;28;20208;-68
2022/12/21 17:30:23;;;;;;;;;;;;;;;;;;4916049;28;20006;-69
2022/12/21 17:32:50;;;;;;;;;;;;;;;;;;4906256;28;20411;-70
2022/12/21 17:35:18;;;;;;;;;;;;;;;;;;4986557;28;19927;-69
2022/12/21 17:37:44;;;;;;;;;;;;;;;;;;4910154;28;19976;-69
2022/12/21 17:40:12;;;;;;;;;;;;;;;;;;4910656;28;20402;-69
2022/12/21 17:42:37;;;;;;;;;;;;;;;;;;4889956;28;19923;-69
2022/12/21 17:45:04;;;;;;;;;;;;;;;;;;4920315;28;19962;-68
2022/12/21 17:47:30;;;;;;;;;;;;;;;;;;4906562;28;20085;-74
2022/12/21 17:49:58;;;;;;;;;;;;;;;;;;4913341;28;19992;-69
2022/12/21 17:52:26;;;;;;;;;;;;;;;;;;4921198;28;19927;-67
2022/12/21 17:54:54;;;;;;;;;;;;;;;;;;4920578;28;20551;-66
2022/12/21 17:57:22;;;;;;;;;;;;;;;;;;4984362;28;19930;-66
2022/12/21 17:59:47;;;;;;;;;;;;;;;;;;4972551;28;20657;-67